createdAt,value
2017-08-29T00:02:45.885Z,3.30
2017-08-29T00:07:47.827Z,4.30
2017-08-29T00:12:50.188Z,4.83
2017-08-29T00:17:52.144Z,4.50
2017-08-29T00:22:54.964Z,4.77
2017-08-29T00:27:57.548Z,4.20
2017-08-29T00:32:59.496Z,4.40
2017-08-29T00:38:02.210Z,4.40
2017-08-29T00:43:04.621Z,4.40
2017-08-29T00:48:07.247Z,4.77
2017-08-29T00:53:09.605Z,4.40
2017-08-29T00:58:11.691Z,4.00
2017-08-29T01:03:14.345Z,3.37
2017-08-29T01:08:16.863Z,4.07
2017-08-29T01:13:19.280Z,4.00
2017-08-29T01:18:22.819Z,4.90
2017-08-29T01:23:25.960Z,4.17
2017-08-29T01:28:28.815Z,4.00
2017-08-29T01:33:30.862Z,4.07
2017-08-29T01:38:33.654Z,4.17
2017-08-29T01:43:35.678Z,4.37
2017-08-29T01:48:38.499Z,3.97
2017-08-29T01:53:42.399Z,3.80
2017-08-29T01:58:45.122Z,4.40
2017-08-29T02:03:47.219Z,4.33
2017-08-29T02:08:49.883Z,4.27
2017-08-29T02:13:52.609Z,4.40
2017-08-29T02:18:54.625Z,4.23
2017-08-29T02:23:57.380Z,4.40
2017-08-29T02:28:59.298Z,4.30
2017-08-29T02:34:01.891Z,4.33
2017-08-29T02:39:03.904Z,4.27
2017-08-29T02:44:06.439Z,4.30
2017-08-29T02:49:08.888Z,4.40
2017-08-29T02:54:11.997Z,4.47
2017-08-29T02:59:13.959Z,4.50
2017-08-29T03:04:16.081Z,4.67
2017-08-29T03:09:18.458Z,4.13
2017-08-29T03:14:21.143Z,4.10
2017-08-29T03:19:23.714Z,4.40
2017-08-29T03:24:26.376Z,4.90
2017-08-29T03:29:28.669Z,5.40
2017-08-29T03:34:31.490Z,4.47
2017-08-29T03:39:33.833Z,4.57
2017-08-29T03:44:36.514Z,4.77
2017-08-29T03:49:39.159Z,4.87
2017-08-29T03:54:43.974Z,5.00
2017-08-29T03:59:49.360Z,5.70
2017-08-29T04:04:52.333Z,6.00
2017-08-29T04:09:54.490Z,5.27
2017-08-29T04:14:57.243Z,6.10
2017-08-29T04:20:00.041Z,5.33
2017-08-29T04:25:03.414Z,5.20
2017-08-29T04:30:05.857Z,5.37
2017-08-29T04:35:08.453Z,5.10
2017-08-29T04:40:11.152Z,5.60
2017-08-29T04:45:13.783Z,4.90
2017-08-29T04:50:16.267Z,5.10
2017-08-29T04:55:18.303Z,4.80
2017-08-29T05:00:20.371Z,4.83
2017-08-29T05:05:22.817Z,4.73
2017-08-29T05:10:28.932Z,5.10
2017-08-29T05:15:31.466Z,5.30
2017-08-29T05:20:33.665Z,5.90
2017-08-29T05:25:36.041Z,5.20
2017-08-29T05:30:37.976Z,5.77
2017-08-29T05:35:40.038Z,5.50
2017-08-29T05:40:42.122Z,5.30
2017-08-29T05:45:44.149Z,5.67
2017-08-29T05:50:46.642Z,4.90
2017-08-29T05:55:48.845Z,4.60
2017-08-29T06:00:51.018Z,4.67
2017-08-29T06:05:53.109Z,4.53
2017-08-29T06:10:55.264Z,4.70
2017-08-29T06:15:57.405Z,4.57
2017-08-29T06:20:59.929Z,5.00
2017-08-29T06:26:02.005Z,4.73
2017-08-29T06:31:12.407Z,5.17
2017-08-29T06:36:15.642Z,4.23
2017-08-29T06:41:18.856Z,5.23
2017-08-29T06:46:21.065Z,5.20
2017-08-29T06:51:23.419Z,5.30
2017-08-29T06:56:26.527Z,4.80
2017-08-29T07:01:30.588Z,5.80
2017-08-29T07:06:35.268Z,4.60
2017-08-29T07:11:43.373Z,4.93
2017-08-29T07:16:48.151Z,4.67
2017-08-29T07:21:50.934Z,4.43
2017-08-29T07:26:53.233Z,4.87
2017-08-29T07:32:01.385Z,4.33
2017-08-29T07:37:03.557Z,5.20
2017-08-29T07:42:06.693Z,4.60
2017-08-29T07:47:09.892Z,5.33
2017-08-29T07:52:12.755Z,5.13
2017-08-29T07:57:21.932Z,5.13
2017-08-29T08:02:29.770Z,5.30
2017-08-29T08:07:37.881Z,5.63
2017-08-29T08:12:46.449Z,5.03
2017-08-29T08:17:49.308Z,5.53
2017-08-29T08:22:52.798Z,5.63
2017-08-29T08:28:02.364Z,5.73
2017-08-29T08:33:04.776Z,5.97
2017-08-29T08:38:07.313Z,6.80
2017-08-29T08:43:10.556Z,6.70
2017-08-29T08:48:12.523Z,6.43
2017-08-29T08:53:14.541Z,6.97
2017-08-29T08:58:16.516Z,7.17
2017-08-29T09:03:18.509Z,7.10
2017-08-29T09:08:20.485Z,6.47
2017-08-29T09:13:22.416Z,7.00
2017-08-29T09:18:24.348Z,6.67
2017-08-29T09:23:26.332Z,8.10
2017-08-29T09:28:28.253Z,7.27
2017-08-29T09:33:30.265Z,7.30
2017-08-29T09:38:32.296Z,6.73
2017-08-29T09:43:35.012Z,8.77
2017-08-29T09:48:37.228Z,7.47
2017-08-29T09:53:39.230Z,8.50
2017-08-29T09:58:41.255Z,8.57
2017-08-29T10:03:43.260Z,8.90
2017-08-29T10:08:45.627Z,8.20
2017-08-29T10:13:47.651Z,8.87
2017-08-29T10:18:49.634Z,7.77
2017-08-29T10:23:51.623Z,7.50
2017-08-29T10:28:53.574Z,7.93
2017-08-29T10:33:55.531Z,8.90
2017-08-29T10:38:57.577Z,8.70
2017-08-29T10:43:59.542Z,8.60
2017-08-29T10:49:01.499Z,8.30
2017-08-29T10:54:03.793Z,8.13
2017-08-29T10:59:06.023Z,8.13
2017-08-29T11:04:08.236Z,8.03
2017-08-29T11:09:10.423Z,7.90
2017-08-29T11:14:12.387Z,7.70
2017-08-29T11:19:16.464Z,9.47
2017-08-29T11:24:21.783Z,9.83
2017-08-29T11:29:28.938Z,9.37
2017-08-29T11:34:31.256Z,10.13
2017-08-29T11:39:33.612Z,9.93
2017-08-29T11:44:35.923Z,11.13
2017-08-29T11:49:37.952Z,9.90
2017-08-29T11:54:40.052Z,12.03
2017-08-29T11:59:42.151Z,10.77
2017-08-29T12:04:44.537Z,11.60
2017-08-29T12:09:46.511Z,11.83
2017-08-29T12:14:48.418Z,12.47
2017-08-29T12:19:50.405Z,12.30
2017-08-29T12:24:52.393Z,10.70
2017-08-29T12:29:54.362Z,12.67
2017-08-29T12:34:56.344Z,11.67
2017-08-29T12:39:58.320Z,9.57
2017-08-29T12:45:00.316Z,8.73
2017-08-29T12:50:02.273Z,11.17
2017-08-29T12:55:04.278Z,9.93
2017-08-29T13:00:06.312Z,10.00
2017-08-29T13:05:08.315Z,10.90
2017-08-29T13:10:10.255Z,8.70
2017-08-29T13:15:12.241Z,8.77
2017-08-29T13:20:14.226Z,8.53
2017-08-29T13:25:16.896Z,10.47
2017-08-29T13:30:18.891Z,7.90
2017-08-29T13:35:21.019Z,7.17
2017-08-29T13:40:23.367Z,7.00
2017-08-29T13:45:25.779Z,6.97
2017-08-29T13:50:27.770Z,7.10
2017-08-29T13:55:33.887Z,7.80
2017-08-29T14:00:35.932Z,6.93
2017-08-29T14:05:38.270Z,7.53
2017-08-29T14:10:41.129Z,6.27
2017-08-29T14:15:43.091Z,6.00
2017-08-29T14:20:45.070Z,6.43
2017-08-29T14:25:47.025Z,5.37
2017-08-29T14:30:48.971Z,5.23
2017-08-29T14:35:50.996Z,5.33
2017-08-29T14:40:52.935Z,5.60
2017-08-29T14:45:54.877Z,6.03
2017-08-29T14:50:56.927Z,5.70
2017-08-29T14:55:59.026Z,6.13
2017-08-29T15:01:01.079Z,5.60
2017-08-29T15:06:03.079Z,5.80
2017-08-29T15:11:05.121Z,5.60
2017-08-29T15:16:07.095Z,5.67
2017-08-29T15:21:09.075Z,6.03
2017-08-29T15:26:11.344Z,5.43
2017-08-29T15:31:13.326Z,5.97
2017-08-29T15:36:15.372Z,6.40
2017-08-29T15:41:17.685Z,7.30
2017-08-29T15:46:19.672Z,7.20
2017-08-29T15:51:21.855Z,8.00
2017-08-29T15:56:23.798Z,8.23
2017-08-29T16:01:25.743Z,8.07
2017-08-29T16:06:27.969Z,7.20
2017-08-29T16:11:30.013Z,7.47
2017-08-29T16:16:32.100Z,7.27
2017-08-29T16:21:34.581Z,8.10
2017-08-29T16:26:36.898Z,9.80
2017-08-29T16:31:39.249Z,8.93
2017-08-29T16:36:41.175Z,8.93
2017-08-29T16:41:43.230Z,8.77
2017-08-29T16:46:45.304Z,7.17
2017-08-29T16:51:47.250Z,10.30
2017-08-29T16:56:51.343Z,8.90
2017-08-29T17:01:53.311Z,10.40
2017-08-29T17:06:55.303Z,11.37
2017-08-29T17:11:57.292Z,13.70
2017-08-29T17:16:59.265Z,13.37
2017-08-29T17:22:01.601Z,13.50
2017-08-29T17:27:04.028Z,8.70
2017-08-29T17:32:05.972Z,8.77
2017-08-29T17:37:10.043Z,9.63
2017-08-29T17:42:12.198Z,11.60
2017-08-29T17:47:14.397Z,10.87
2017-08-29T17:52:16.333Z,10.67
2017-08-29T17:57:18.523Z,12.00
2017-08-29T18:02:20.948Z,12.10
2017-08-29T18:07:23.539Z,11.50
2017-08-29T18:12:25.843Z,10.97
2017-08-29T18:17:28.118Z,11.17
2017-08-29T18:22:30.477Z,10.10
2017-08-29T18:27:36.116Z,10.60
2017-08-29T18:32:38.508Z,10.40
2017-08-29T18:37:40.835Z,10.73
2017-08-29T18:42:43.348Z,10.87
2017-08-29T18:47:45.456Z,11.00
2017-08-29T18:52:47.693Z,10.93
2017-08-29T18:57:49.710Z,12.53
2017-08-29T19:02:51.705Z,12.23
2017-08-29T19:07:54.928Z,18.83
2017-08-29T19:12:58.010Z,14.47
2017-08-29T19:18:01.368Z,19.87
2017-08-29T19:23:04.669Z,13.80
2017-08-29T19:28:07.912Z,16.43
2017-08-29T19:33:11.036Z,14.37
2017-08-29T19:38:14.256Z,15.80
2017-08-29T19:43:17.494Z,15.67
2017-08-29T19:48:21.619Z,20.13
2017-08-29T19:53:24.932Z,17.23
2017-08-29T19:58:35.758Z,17.73
2017-08-29T20:03:37.931Z,18.53
2017-08-29T20:08:40.431Z,17.90
2017-08-29T20:13:42.550Z,18.77
2017-08-29T20:18:45.198Z,19.57
2017-08-29T20:23:47.275Z,19.00
2017-08-29T20:28:49.775Z,18.10
2017-08-29T20:33:51.840Z,18.20
2017-08-29T20:38:55.837Z,18.33
2017-08-29T20:43:58.024Z,20.03
2017-08-29T20:49:01.876Z,19.50
2017-08-29T20:54:04.264Z,19.90
2017-08-29T20:59:06.386Z,21.43
2017-08-29T21:04:08.322Z,20.03
2017-08-29T21:09:10.254Z,20.33
2017-08-29T21:14:12.202Z,20.53
2017-08-29T21:19:14.280Z,22.53
2017-08-29T21:24:16.329Z,21.60
2017-08-29T21:29:18.323Z,22.00
2017-08-29T21:34:20.326Z,21.37
2017-08-29T21:39:22.251Z,23.20
2017-08-29T21:44:24.163Z,22.43
2017-08-29T21:49:26.081Z,21.53
2017-08-29T21:54:28.068Z,23.57
2017-08-29T21:59:30.048Z,23.23
2017-08-29T22:04:32.066Z,23.80
2017-08-29T22:09:34.217Z,23.43
2017-08-29T22:14:36.594Z,23.57
2017-08-29T22:19:38.595Z,25.27
2017-08-29T22:24:40.573Z,24.53
2017-08-29T22:29:44.142Z,22.90
2017-08-29T22:34:46.143Z,23.40
2017-08-29T22:39:48.085Z,22.87
2017-08-29T22:44:50.185Z,23.40
2017-08-29T22:49:52.178Z,23.93
2017-08-29T22:54:54.704Z,23.80
2017-08-29T22:59:57.322Z,22.83
2017-08-29T23:04:59.733Z,23.63
2017-08-29T23:10:02.413Z,25.13
2017-08-29T23:15:05.190Z,22.33
2017-08-29T23:20:07.749Z,22.80
2017-08-29T23:25:09.686Z,24.17
2017-08-29T23:30:11.641Z,23.63
2017-08-29T23:35:13.569Z,21.53
2017-08-29T23:40:17.092Z,22.83
2017-08-29T23:45:19.676Z,22.70
2017-08-29T23:50:23.483Z,22.60
2017-08-29T23:55:26.169Z,21.60
